• Join FlightAware (Why Join?)
  • Login
  • US Flag 
08:40AM EDT


 

Airport Tracker/Info


-or-


 

Live Flight TrackerFlight Track Log ✈ N491AA ✈ 18-Apr-2012 ✈ KDFW - KPHX

Flight Track Log - Related Links

Times and Time Zones

All times are in EDT time to prevent confusion due to time zone crossing. See the N491AA flight status page for this flight to view local times or setup timezone preferences in your user account.

Time Position Orientation Groundspeed Altitude Reporting Facility
EDT Latitude Longitude Course Direction KTS MPH feet Rate Location/Type
08:59PM 32.8685 -97.0347 205° Southwest  Level FlightAware Approximate
09:00PM 32.8560 -97.1714 99° East  Level FlightAware Approximate
09:00PM 32.8397 -97.0508 184° South 201 231 2,800  Level FAA TRACON SMA TRACON (SMA)
09:01PM 32.8006 -97.0544 200° South 234 269 4,100 2,220 Climbing FAA TRACON SMA TRACON (SMA)
09:02PM 32.7556 -97.0739 250° West 262 302 5,800 2,640 Climbing FAA TRACON SMA TRACON (SMA)
09:02PM 32.7375 -97.1339 268° West 297 342 7,600 2,700 Climbing FAA TRACON SMA TRACON (SMA)
09:03PM 32.7361 -97.1944 268° West 296 341 9,400 1,680 Climbing FAA TRACON SMA TRACON (SMA)
09:04PM 32.7339 -97.2606 270° West 289 333 9,900 360 Climbing FAA TRACON SMA TRACON (SMA)
09:04PM 32.7339 -97.3231 269° West 307 353 9,900 720 Level FAA TRACON SMA TRACON (SMA)
09:05PM 32.7325 -97.3947 269° West 313 360 10,900 1,680 Climbing FAA TRACON SMA TRACON (SMA)
09:06PM 32.7311 -97.4683 269° West 324 373 12,200 2,220 Climbing FAA TRACON SMA TRACON (SMA)
09:06PM 32.7294 -97.5472 269° West 346 398 13,900 2,220 Climbing FAA TRACON SMA TRACON (SMA)
09:07PM 32.7283 -97.6189 269° West 352 405 15,300 1,980 Climbing FAA TRACON SMA TRACON (SMA)
09:08PM 32.7267 -97.7025 270° West 368 423 16,600 1,860 Climbing FAA TRACON SMA TRACON (SMA)
09:08PM 32.7261 -97.7906 271° West 388 447 17,800 2,100 Climbing FAA TRACON SMA TRACON (SMA)
09:09PM 32.7272 -97.8697 271° West 388 447 19,400 2,100 Climbing FAA TRACON SMA TRACON (SMA)
09:10PM 32.7283 -97.9572 267° West 384 442 20,600 1,800 Climbing FAA TRACON SMA TRACON (SMA)
09:10PM 32.7242 -98.0478 265° West 397 457 21,800 1,560 Climbing FAA TRACON SMA TRACON (SMA)
09:11PM 32.7183 -98.1292 269° West 404 465 22,700 1,440 Climbing FAA TRACON SMA TRACON (SMA)
09:12PM 32.7172 -98.2025 263° West 411 473 23,700 1,500 Climbing FAA TRACON SMA TRACON (SMA)
09:13PM 32.7047 -98.3319 264° West 422 486 25,100 1,380 Climbing Fort Worth Center
09:14PM 32.6933 -98.4650 267° West 422 486 26,400 1,200 Climbing Fort Worth Center
09:15PM 32.6878 -98.6056 265° West 427 491 27,600 1,200 Climbing Fort Worth Center
09:16PM 32.6781 -98.7486 265° West 432 497 28,900 1,320 Climbing Fort Worth Center
09:17PM 32.6681 -98.8917 266° West 432 497 30,300 1,200 Climbing Fort Worth Center
09:18PM 32.6600 -99.0322 265° West 437 503 31,400 840 Climbing Fort Worth Center
09:19PM 32.6497 -99.1703 265° West 437 503 32,000 300 Climbing Fort Worth Center
09:20PM 32.6394 -99.3106 265° West 437 503 32,000  Level Fort Worth Center
09:21PM 32.6289 -99.4508 265° West 437 503 32,000  Level Fort Worth Center
09:22PM 32.6183 -99.5889 265° West 437 503 32,000  Level Fort Worth Center
09:23PM 32.6072 -99.7342 265° West 437 503 32,000  Level Fort Worth Center
09:24PM 32.5961 -99.8767 265° West 442 509 32,000  Level Fort Worth Center
09:25PM 32.5847 -100.0367 265° West 447 514 32,000  Level Fort Worth Center
09:26PM 32.5753 -100.1744 265° West 436 502 32,000  Level Fort Worth Center
09:27PM 32.5658 -100.3147 264° West 436 502 32,000  Level Fort Worth Center
09:28PM 32.5542 -100.4572 264° West 436 502 32,000  Level Fort Worth Center
09:29PM 32.5425 -100.5972 264° West 436 502 32,000  Level Fort Worth Center
09:30PM 32.5303 -100.7375 265° West 436 502 32,000  Level Fort Worth Center
09:31PM 32.5203 -100.8800 265° West 441 507 32,000  Level Fort Worth Center
09:32PM 32.5103 -101.0175 264° West 441 507 32,000  Level Fort Worth Center
09:33PM 32.4978 -101.1572 262° West 441 507 32,000  Level Fort Worth Center
09:34PM 32.4811 -101.2944 266° West 441 507 32,000  Level Fort Worth Center
09:35PM 32.4722 -101.4369 263° West 441 507 32,000  Level Fort Worth Center
09:36PM 32.4575 -101.5767 264° West 441 507 32,000  Level Fort Worth Center
09:37PM 32.4469 -101.7042 264° West 441 507 32,000  Level Fort Worth Center
09:38PM 32.4336 -101.8461 265° West 441 507 32,000  Level Fort Worth Center
09:39PM 32.4222 -101.9883 263° West 441 507 32,000  Level Fort Worth Center
09:40PM 32.4086 -102.1278 264° West 441 507 32,000  Level Fort Worth Center
09:41PM 32.3947 -102.2722 263° West 446 513 32,000  Level Fort Worth Center
09:42PM 32.3783 -102.4289 264° West 446 513 32,000  Level Fort Worth Center
09:43PM 32.3661 -102.5708 264° West 441 507 32,000  Level Fort Worth Center
09:44PM 32.3539 -102.7128 263° West 441 507 32,000  Level Fort Worth Center
09:45PM 32.3397 -102.8544 263° West 436 502 32,000  Level Fort Worth Center
09:46PM 32.3256 -102.9839 265° West 441 507 32,000  Level Fort Worth Center
09:47PM 32.3150 -103.1233 263° West 434 499 32,000  Level Fort Worth Center
09:49PM 32.2856 -103.4114 263° West 446 513 32,000  Level Albuquerque Center
09:50PM 32.2714 -103.5519 262° West 441 507 32,000  Level Albuquerque Center
09:51PM 32.2550 -103.6900 264° West 441 507 32,000  Level Albuquerque Center
09:52PM 32.2425 -103.8303 262° West 436 502 32,000  Level Albuquerque Center
09:53PM 32.2256 -103.9733 263° West 436 502 32,000  Level Albuquerque Center
09:54PM 32.2108 -104.1139 262° West 436 502 32,000  Level Albuquerque Center
09:55PM 32.1936 -104.2517 264° West 436 502 32,000 -60 Level Albuquerque Center
09:56PM 32.1806 -104.3919 262° West 431 496 31,900  Descending Albuquerque Center
09:57PM 32.1631 -104.5322 262° West 431 496 32,000  Climbing Albuquerque Center
09:58PM 32.1475 -104.6700 262° West 431 496 32,000  Level Albuquerque Center
09:59PM 32.1317 -104.8078 263° West 431 496 32,000  Level Albuquerque Center
10:00PM 32.1158 -104.9528 262° West 431 496 32,000  Level Albuquerque Center
10:01PM 32.0978 -105.0953 263° West 436 502 32,000  Level Albuquerque Center
10:02PM 32.0836 -105.2353 261° West 436 502 32,000  Level Albuquerque Center
10:03PM 32.0653 -105.3753 262° West 436 502 32,000 -60 Level Albuquerque Center
10:04PM 32.0486 -105.5153 262° West 441 507 31,900  Descending Albuquerque Center
10:05PM 32.0319 -105.6600 262° West 446 513 32,000  Climbing Albuquerque Center
10:06PM 32.0150 -105.7972 262° West 446 513 32,000  Level Albuquerque Center
10:07PM 31.9981 -105.9394 263° West 446 513 32,000  Level Albuquerque Center
10:08PM 31.9831 -106.0792 262° West 446 513 32,000  Level Albuquerque Center
10:09PM 31.9656 -106.2189 269° West 446 513 32,000  Level Albuquerque Center
10:10PM 31.9628 -106.3583 278° West 446 513 32,000  Level Albuquerque Center
10:11PM 31.9806 -106.5000 276° West 441 507 32,000  Level Albuquerque Center
10:12PM 31.9939 -106.6394 277° West 441 507 32,000  Level Albuquerque Center
10:13PM 32.0092 -106.7811 277° West 441 507 32,000  Level Albuquerque Center
10:14PM 32.0244 -106.9206 277° West 441 507 32,000 -60 Level Albuquerque Center
10:15PM 32.0394 -107.0600 279° West 441 507 31,900 -60 Descending Albuquerque Center
10:16PM 32.0586 -107.1969 277° West 441 507 31,900  Level Albuquerque Center
10:17PM 32.0733 -107.3414 277° West 441 507 32,000  Climbing Albuquerque Center
10:18PM 32.0878 -107.4761 277° West 436 502 32,000 -60 Level Albuquerque Center
10:19PM 32.1022 -107.6183 277° West 436 502 31,900  Descending Albuquerque Center
10:20PM 32.1183 -107.7728 278° West 436 502 32,000  Climbing Albuquerque Center
10:21PM 32.1344 -107.9125 277° West 436 502 32,000  Level Albuquerque Center
10:22PM 32.1483 -108.0572 278° West 441 507 32,000  Level Albuquerque Center
10:23PM 32.1642 -108.1847 275° West 446 513 32,000  Level Albuquerque Center
10:24PM 32.1756 -108.3417 278° West 446 513 32,000  Level Albuquerque Center
10:25PM 32.1911 -108.4719 277° West 441 507 32,000  Level Albuquerque Center
10:26PM 32.2064 -108.6119 276° West 441 507 32,000  Level Albuquerque Center
10:27PM 32.2194 -108.7544 276° West 447 514 32,000  Level Albuquerque Center
10:28PM 32.2322 -108.8994 278° West 447 514 32,000  Level Albuquerque Center
10:29PM 32.2492 -109.0394 276° West 447 514 32,000  Level Albuquerque Center
10:30PM 32.2617 -109.1819 280° West 447 514 32,000  Level Albuquerque Center
10:31PM 32.2825 -109.3200 286° West 447 514 32,000 -300 Level Albuquerque Center
10:32PM 32.3156 -109.4558 286° West 437 503 31,500 -660 Descending Albuquerque Center
10:33PM 32.3486 -109.5917 286° West 432 497 30,700 -960 Descending Albuquerque Center
10:34PM 32.3814 -109.7303 287° West 437 503 29,600 -1,140 Descending Albuquerque Center
10:35PM 32.4161 -109.8639 285° West 437 503 28,500 -1,140 Descending Albuquerque Center
10:36PM 32.4467 -109.9975 286° West 426 490 27,400 -1,140 Descending Albuquerque Center
10:37PM 32.4792 -110.1289 286° West 421 484 26,300 -1,020 Descending Albuquerque Center
10:38PM 32.5094 -110.2578 288° West 416 479 25,400 -960 Descending Albuquerque Center
10:39PM 32.5478 -110.3947 285° West 410 472 24,400 -1,020 Descending Albuquerque Center
10:40PM 32.5758 -110.5236 293° West 405 466 23,400 -960 Descending Albuquerque Center
10:41PM 32.6164 -110.6386 303° West 395 455 22,500 -900 Descending Albuquerque Center
10:42PM 32.6761 -110.7469 303° West 388 447 21,600 -900 Descending Albuquerque Center
10:43PM 32.7336 -110.8528 303° West 382 440 20,700 -1,560 Descending Albuquerque Center
10:44PM 32.7889 -110.9536 301° West 382 440 18,600 -1,920 Descending Albuquerque Center
10:45PM 32.8342 -111.0422 300° West 370 426 16,900 -1,560 Descending Albuquerque Center
10:46PM 32.8814 -111.1381 299° West 356 410 15,500 -1,440 Descending Albuquerque Center
10:47PM 32.9242 -111.2292 299° West 337 388 14,100 -1,320 Descending Albuquerque Center
10:48PM 32.9633 -111.3125 299° West 308 354 12,900 -960 Descending Albuquerque Center
10:49PM 33.0022 -111.3958 300° West 295 339 12,200 -900 Descending Albuquerque Center
10:50PM 33.0472 -111.4872 302° West 295 339 11,100 -1,080 Descending Albuquerque Center
10:51PM 33.0903 -111.5686 336° Northwest 295 339 10,100 -1,020 Descending Albuquerque Center
10:51PM 33.1500 -111.6000 337° Northwest 272 313 9,400 -1,020 Descending Phoenix TRACON
10:52PM 33.2167 -111.6333 331° Northwest 251 289 8,400 -1,080 Descending Phoenix TRACON
10:53PM 33.2667 -111.6667 337° Northwest 240 276 7,300 -1,200 Descending Phoenix TRACON
10:54PM 33.3333 -111.7000 309° West 232 267 6,000 -1,200 Descending Phoenix TRACON
10:55PM 33.3667 -111.7500 301° West 229 264 4,900 -1,080 Descending Phoenix TRACON
10:56PM 33.4000 -111.8167 301° West 204 235 3,900 -1,020 Descending Phoenix TRACON